Time,TemperatureF,DewpointF,PressureIn,WindDirection,WindDirectionDegrees,WindSpeedMPH,WindSpeedGustMPH,Humidity,HourlyPrecipIn,Conditions,Clouds,dailyrainin,SolarRadiationWatts/m^2,SoftwareType,DateUTC
2013-05-20 00:12:00,76.0,69.0,-100.00,NE,50,7.0,13.0,80,0.00,,,0.00,1.000000,,2013-05-20 05:12:00,
2013-05-20 00:22:00,76.0,69.0,-100.00,NE,50,7.0,13.0,80,0.00,,,0.00,1.000000,,2013-05-20 05:22:00,
2013-05-20 00:32:00,76.0,69.0,-100.00,NE,50,7.0,13.0,80,0.00,,,0.00,1.000000,,2013-05-20 05:32:00,
2013-05-20 00:42:00,76.0,69.0,-100.00,NE,50,7.0,13.0,80,0.00,,,0.00,1.000000,,2013-05-20 05:42:00,
2013-05-20 00:51:00,76.0,69.0,-100.00,NE,50,7.0,13.0,80,0.00,,,0.00,1.000000,,2013-05-20 05:51:00,
2013-05-20 01:21:00,75.0,69.0,-100.00,NE,48,8.0,14.0,81,0.00,,,0.00,1.000000,,2013-05-20 06:21:00,
2013-05-20 01:32:00,75.0,69.0,-100.00,NE,48,8.0,14.0,81,0.00,,,0.00,1.000000,,2013-05-20 06:32:00,
2013-05-20 01:42:00,75.0,69.0,-100.00,NE,48,8.0,14.0,81,0.00,,,0.00,1.000000,,2013-05-20 06:42:00,
2013-05-20 01:52:00,75.0,69.0,-100.00,NE,48,8.0,14.0,81,0.00,,,0.00,1.000000,,2013-05-20 06:52:00,
2013-05-20 02:12:00,74.0,68.0,-100.00,NE,52,9.0,15.0,83,0.00,,,0.00,1.000000,,2013-05-20 07:12:00,
2013-05-20 02:21:00,74.0,68.0,-100.00,NE,52,9.0,15.0,83,0.00,,,0.00,1.000000,,2013-05-20 07:21:00,
2013-05-20 02:32:00,74.0,68.0,-100.00,NE,52,9.0,15.0,83,0.00,,,0.00,1.000000,,2013-05-20 07:32:00,
2013-05-20 02:42:00,74.0,68.0,-100.00,NE,52,9.0,15.0,83,0.00,,,0.00,1.000000,,2013-05-20 07:42:00,
2013-05-20 02:52:00,74.0,68.0,-100.00,NE,52,9.0,15.0,83,0.00,,,0.00,1.000000,,2013-05-20 07:52:00,
2013-05-20 03:21:00,74.0,70.0,-100.00,NE,52,7.0,16.0,86,0.00,,,0.00,1.000000,,2013-05-20 08:21:00,
2013-05-20 03:32:00,74.0,70.0,-100.00,NE,52,7.0,16.0,86,0.00,,,0.00,1.000000,,2013-05-20 08:32:00,
2013-05-20 03:41:00,74.0,70.0,-100.00,NE,52,7.0,16.0,86,0.00,,,0.00,1.000000,,2013-05-20 08:41:00,
2013-05-20 03:51:00,74.0,70.0,-100.00,NE,52,7.0,16.0,86,0.00,,,0.00,1.000000,,2013-05-20 08:51:00,
2013-05-20 04:12:00,74.0,70.0,-100.00,ENE,63,9.0,14.0,86,0.00,,,0.00,1.000000,,2013-05-20 09:12:00,
2013-05-20 04:21:00,74.0,70.0,-100.00,ENE,63,9.0,14.0,86,0.00,,,0.00,1.000000,,2013-05-20 09:21:00,
2013-05-20 04:32:00,74.0,70.0,-100.00,ENE,63,9.0,14.0,86,0.00,,,0.00,1.000000,,2013-05-20 09:32:00,
2013-05-20 04:43:00,74.0,70.0,-100.00,ENE,63,9.0,14.0,86,0.00,,,0.00,1.000000,,2013-05-20 09:43:00,
2013-05-20 04:52:00,74.0,70.0,-100.00,ENE,63,9.0,14.0,86,0.00,,,0.00,1.000000,,2013-05-20 09:52:00,
2013-05-20 05:12:00,74.0,70.0,-100.00,ENE,73,10.0,22.0,86,0.00,,,0.00,1.000000,,2013-05-20 10:12:00,
2013-05-20 05:22:00,74.0,70.0,-100.00,ENE,73,10.0,22.0,86,0.00,,,0.00,1.000000,,2013-05-20 10:22:00,
2013-05-20 05:32:00,74.0,70.0,-100.00,ENE,73,10.0,22.0,86,0.00,,,0.00,1.000000,,2013-05-20 10:32:00,
2013-05-20 05:42:00,74.0,70.0,-100.00,ENE,73,10.0,22.0,86,0.00,,,0.00,1.000000,,2013-05-20 10:42:00,
2013-05-20 05:52:00,74.0,70.0,-100.00,ENE,73,10.0,22.0,86,0.00,,,0.00,1.000000,,2013-05-20 10:52:00,
2013-05-20 06:21:00,73.0,69.0,-100.00,ESE,103,6.0,19.0,87,0.00,,,0.00,1.000000,,2013-05-20 11:21:00,
2013-05-20 06:32:00,73.0,69.0,-100.00,ESE,103,6.0,19.0,87,0.00,,,0.00,1.000000,,2013-05-20 11:32:00,
2013-05-20 06:42:00,73.0,69.0,-100.00,ESE,103,6.0,19.0,87,0.00,,,0.00,1.000000,,2013-05-20 11:42:00,
2013-05-20 06:51:00,73.0,69.0,-100.00,ESE,103,6.0,19.0,87,0.00,,,0.00,1.000000,,2013-05-20 11:51:00,
2013-05-20 07:11:00,74.0,69.0,-100.00,East,79,7.0,17.0,85,0.00,,,0.00,32.000000,,2013-05-20 12:11:00,
2013-05-20 07:21:00,74.0,69.0,-100.00,East,79,7.0,17.0,85,0.00,,,0.00,32.000000,,2013-05-20 12:21:00,
2013-05-20 07:32:00,74.0,69.0,-100.00,East,79,7.0,17.0,85,0.00,,,0.00,32.000000,,2013-05-20 12:32:00,
2013-05-20 07:41:00,74.0,69.0,-100.00,East,79,7.0,17.0,85,0.00,,,0.00,32.000000,,2013-05-20 12:41:00,
2013-05-20 07:52:00,74.0,69.0,-100.00,East,79,7.0,17.0,85,0.00,,,0.00,32.000000,,2013-05-20 12:52:00,
2013-05-20 08:22:00,76.0,70.0,-100.00,East,89,9.0,16.0,82,0.00,,,0.00,228.000000,,2013-05-20 13:22:00,
2013-05-20 08:31:00,76.0,70.0,-100.00,East,89,9.0,16.0,82,0.00,,,0.00,228.000000,,2013-05-20 13:31:00,
2013-05-20 08:41:00,76.0,70.0,-100.00,East,89,9.0,16.0,82,0.00,,,0.00,228.000000,,2013-05-20 13:41:00,
2013-05-20 08:52:00,76.0,70.0,-100.00,East,89,9.0,16.0,82,0.00,,,0.00,228.000000,,2013-05-20 13:52:00,
2013-05-20 09:22:00,77.0,70.0,-100.00,East,85,8.0,19.0,80,0.00,,,0.00,344.000000,,2013-05-20 14:22:00,
2013-05-20 09:32:00,77.0,70.0,-100.00,East,85,8.0,19.0,80,0.00,,,0.00,344.000000,,2013-05-20 14:32:00,
2013-05-20 09:42:00,77.0,70.0,-100.00,East,85,8.0,19.0,80,0.00,,,0.00,344.000000,,2013-05-20 14:42:00,
2013-05-20 09:52:00,77.0,70.0,-100.00,East,85,8.0,19.0,80,0.00,,,0.00,344.000000,,2013-05-20 14:52:00,
2013-05-20 09:53:00,77.0,70.0,-100.00,ENE,77,8.0,16.0,79,0.00,,,0.00,310.000000,,2013-05-20 14:53:00,
2013-05-20 10:21:00,77.0,70.0,-100.00,ENE,77,8.0,16.0,79,0.00,,,0.00,310.000000,,2013-05-20 15:21:00,
2013-05-20 10:33:00,77.0,70.0,-100.00,ENE,77,8.0,16.0,79,0.00,,,0.00,310.000000,,2013-05-20 15:33:00,
2013-05-20 10:42:00,77.0,70.0,-100.00,ENE,77,8.0,16.0,79,0.00,,,0.00,310.000000,,2013-05-20 15:42:00,
2013-05-20 11:13:00,77.0,71.0,-100.00,ENE,71,6.0,13.0,81,0.00,,,0.00,208.000000,,2013-05-20 16:13:00,
2013-05-20 11:22:00,77.0,71.0,-100.00,ENE,71,6.0,13.0,81,0.00,,,0.00,208.000000,,2013-05-20 16:22:00,
2013-05-20 11:33:00,77.0,71.0,-100.00,ENE,71,6.0,13.0,81,0.00,,,0.00,208.000000,,2013-05-20 16:33:00,
2013-05-20 11:42:00,77.0,71.0,-100.00,ENE,71,6.0,13.0,81,0.00,,,0.00,208.000000,,2013-05-20 16:42:00,
2013-05-20 11:52:00,77.0,71.0,-100.00,ENE,71,6.0,13.0,81,0.00,,,0.00,208.000000,,2013-05-20 16:52:00,
2013-05-20 11:53:00,78.0,70.0,-100.00,East,83,8.0,14.0,76,0.00,,,0.00,231.000000,,2013-05-20 16:53:00,
2013-05-20 12:12:00,78.0,70.0,-100.00,East,83,8.0,14.0,76,0.00,,,0.00,231.000000,,2013-05-20 17:12:00,
2013-05-20 12:22:00,78.0,70.0,-100.00,East,83,8.0,14.0,76,0.00,,,0.00,231.000000,,2013-05-20 17:22:00,
2013-05-20 12:33:00,78.0,70.0,-100.00,East,83,8.0,14.0,76,0.00,,,0.00,231.000000,,2013-05-20 17:33:00,
2013-05-20 12:45:00,78.0,70.0,-100.00,East,83,8.0,14.0,76,0.00,,,0.00,231.000000,,2013-05-20 17:45:00,
2013-05-20 12:53:00,78.0,70.0,-100.00,East,94,6.0,13.0,76,0.00,,,0.00,250.000000,,2013-05-20 17:53:00,
2013-05-20 13:12:00,78.0,70.0,-100.00,East,94,6.0,13.0,76,0.00,,,0.00,250.000000,,2013-05-20 18:12:00,
2013-05-20 13:23:00,78.0,70.0,-100.00,East,94,6.0,13.0,76,0.00,,,0.00,250.000000,,2013-05-20 18:23:00,
2013-05-20 13:32:00,78.0,70.0,-100.00,East,94,6.0,13.0,76,0.00,,,0.00,250.000000,,2013-05-20 18:32:00,
2013-05-20 13:42:00,78.0,70.0,-100.00,East,94,6.0,13.0,76,0.00,,,0.00,250.000000,,2013-05-20 18:42:00,
2013-05-20 14:21:00,81.0,71.0,-100.00,ENE,72,6.0,13.0,72,0.00,,,0.00,363.000000,,2013-05-20 19:21:00,
2013-05-20 14:32:00,81.0,71.0,-100.00,ENE,72,6.0,13.0,72,0.00,,,0.00,363.000000,,2013-05-20 19:32:00,
2013-05-20 14:41:00,81.0,71.0,-100.00,ENE,72,6.0,13.0,72,0.00,,,0.00,363.000000,,2013-05-20 19:41:00,
2013-05-20 14:52:00,81.0,71.0,-100.00,ENE,72,6.0,13.0,72,0.00,,,0.00,363.000000,,2013-05-20 19:52:00,
2013-05-20 15:21:00,80.0,70.0,-100.00,ENE,76,7.0,16.0,72,0.00,,,0.00,349.000000,,2013-05-20 20:21:00,
2013-05-20 15:32:00,80.0,70.0,-100.00,ENE,76,7.0,16.0,72,0.00,,,0.00,349.000000,,2013-05-20 20:32:00,
2013-05-20 15:42:00,80.0,70.0,-100.00,ENE,76,7.0,16.0,72,0.00,,,0.00,349.000000,,2013-05-20 20:42:00,
2013-05-20 15:51:00,80.0,70.0,-100.00,ENE,76,7.0,16.0,72,0.00,,,0.00,349.000000,,2013-05-20 20:51:00,
2013-05-20 15:53:00,81.0,72.0,-100.00,ENE,62,5.0,11.0,73,0.00,,,0.00,207.000000,,2013-05-20 20:53:00,
2013-05-20 16:21:00,81.0,72.0,-100.00,ENE,62,5.0,11.0,73,0.00,,,0.00,207.000000,,2013-05-20 21:21:00,
2013-05-20 16:33:00,81.0,72.0,-100.00,ENE,62,5.0,11.0,73,0.00,,,0.00,207.000000,,2013-05-20 21:33:00,
2013-05-20 16:43:00,81.0,72.0,-100.00,ENE,62,5.0,11.0,73,0.00,,,0.00,207.000000,,2013-05-20 21:43:00,
2013-05-20 17:12:00,80.0,71.0,-100.00,NE,54,4.0,8.0,75,0.00,,,0.00,162.000000,,2013-05-20 22:12:00,
2013-05-20 17:23:00,80.0,71.0,-100.00,NE,54,4.0,8.0,75,0.00,,,0.00,162.000000,,2013-05-20 22:23:00,
2013-05-20 17:33:00,80.0,71.0,-100.00,NE,54,4.0,8.0,75,0.00,,,0.00,162.000000,,2013-05-20 22:33:00,
2013-05-20 17:42:00,80.0,71.0,-100.00,NE,54,4.0,8.0,75,0.00,,,0.00,162.000000,,2013-05-20 22:42:00,
2013-05-20 17:52:00,80.0,71.0,-100.00,NE,54,4.0,8.0,75,0.00,,,0.00,162.000000,,2013-05-20 22:52:00,
2013-05-20 18:12:00,83.0,72.0,-100.00,ENE,57,4.0,6.0,69,0.00,,,0.00,265.000000,,2013-05-20 23:12:00,
2013-05-20 18:22:00,83.0,72.0,-100.00,ENE,57,4.0,6.0,69,0.00,,,0.00,265.000000,,2013-05-20 23:22:00,
2013-05-20 18:32:00,83.0,72.0,-100.00,ENE,57,4.0,6.0,69,0.00,,,0.00,265.000000,,2013-05-20 23:32:00,
2013-05-20 18:42:00,83.0,72.0,-100.00,ENE,57,4.0,6.0,69,0.00,,,0.00,265.000000,,2013-05-20 23:42:00,
2013-05-20 18:52:00,83.0,72.0,-100.00,ENE,57,4.0,6.0,69,0.00,,,0.00,265.000000,,2013-05-20 23:52:00,
2013-05-20 19:21:00,83.0,70.0,-100.00,ENE,65,7.0,12.0,64,0.00,,,0.00,201.000000,,2013-05-21 00:21:00,
2013-05-20 19:32:00,83.0,70.0,-100.00,ENE,65,7.0,12.0,64,0.00,,,0.00,201.000000,,2013-05-21 00:32:00,
2013-05-20 19:42:00,83.0,70.0,-100.00,ENE,65,7.0,12.0,64,0.00,,,0.00,201.000000,,2013-05-21 00:42:00,
2013-05-20 19:52:00,83.0,70.0,-100.00,ENE,65,7.0,12.0,64,0.00,,,0.00,201.000000,,2013-05-21 00:52:00,
2013-05-20 20:11:00,81.0,68.0,-100.00,ENE,67,7.0,17.0,64,0.00,,,0.00,43.000000,,2013-05-21 01:11:00,
2013-05-20 20:22:00,81.0,68.0,-100.00,ENE,67,7.0,17.0,64,0.00,,,0.00,43.000000,,2013-05-21 01:22:00,
2013-05-20 20:32:00,81.0,68.0,-100.00,ENE,67,7.0,17.0,64,0.00,,,0.00,43.000000,,2013-05-21 01:32:00,
2013-05-20 20:42:00,81.0,68.0,-100.00,ENE,67,7.0,17.0,64,0.00,,,0.00,43.000000,,2013-05-21 01:42:00,
2013-05-20 20:52:00,81.0,68.0,-100.00,ENE,67,7.0,17.0,64,0.00,,,0.00,43.000000,,2013-05-21 01:52:00,
2013-05-20 21:11:00,80.0,68.0,-100.00,ENE,68,4.0,10.0,66,0.00,,,0.00,2.000000,,2013-05-21 02:11:00,
2013-05-20 21:21:00,80.0,68.0,-100.00,ENE,68,4.0,10.0,66,0.00,,,0.00,2.000000,,2013-05-21 02:21:00,
2013-05-20 21:32:00,80.0,68.0,-100.00,ENE,68,4.0,10.0,66,0.00,,,0.00,2.000000,,2013-05-21 02:32:00,
2013-05-20 21:42:00,80.0,68.0,-100.00,ENE,68,4.0,10.0,66,0.00,,,0.00,2.000000,,2013-05-21 02:42:00,
2013-05-20 21:52:00,80.0,68.0,-100.00,ENE,68,4.0,10.0,66,0.00,,,0.00,2.000000,,2013-05-21 02:52:00,
2013-05-20 21:53:00,79.0,68.0,-100.00,ENE,63,6.0,10.0,70,0.00,,,0.00,1.000000,,2013-05-21 02:53:00,
2013-05-20 22:11:00,79.0,68.0,-100.00,ENE,63,6.0,10.0,70,0.00,,,0.00,1.000000,,2013-05-21 03:11:00,
2013-05-20 22:21:00,79.0,68.0,-100.00,ENE,63,6.0,10.0,70,0.00,,,0.00,1.000000,,2013-05-21 03:21:00,
2013-05-20 22:33:00,79.0,68.0,-100.00,ENE,63,6.0,10.0,70,0.00,,,0.00,1.000000,,2013-05-21 03:33:00,
2013-05-20 22:43:00,79.0,68.0,-100.00,ENE,63,6.0,10.0,70,0.00,,,0.00,1.000000,,2013-05-21 03:43:00,
2013-05-20 23:13:00,79.0,69.0,-100.00,ENE,65,9.0,18.0,71,0.00,,,0.00,1.000000,,2013-05-21 04:13:00,
2013-05-20 23:23:00,79.0,69.0,-100.00,ENE,65,9.0,18.0,71,0.00,,,0.00,1.000000,,2013-05-21 04:23:00,
2013-05-20 23:33:00,79.0,69.0,-100.00,ENE,65,9.0,18.0,71,0.00,,,0.00,1.000000,,2013-05-21 04:33:00,
2013-05-20 23:42:00,79.0,69.0,-100.00,ENE,65,9.0,18.0,71,0.00,,,0.00,1.000000,,2013-05-21 04:42:00,
2013-05-20 23:52:00,79.0,69.0,-100.00,ENE,65,9.0,18.0,71,0.00,,,0.00,1.000000,,2013-05-21 04:52:00,